createdAt,value
2022-09-14T00:01:25.919Z,6.65
2022-09-14T00:03:56.011Z,6.25
2022-09-14T00:06:23.243Z,4.40
2022-09-14T00:08:52.676Z,4.80
2022-09-14T00:11:20.878Z,3.60
2022-09-14T00:13:48.396Z,3.38
2022-09-14T00:16:19.843Z,3.28
2022-09-14T00:18:54.727Z,3.17
2022-09-14T00:21:22.689Z,3.08
2022-09-14T00:23:49.964Z,2.25
2022-09-14T00:26:20.201Z,2.05
2022-09-14T00:28:53.416Z,1.98
2022-09-14T00:31:21.447Z,1.88
2022-09-14T00:33:50.499Z,1.50
2022-09-14T00:36:26.710Z,1.63
2022-09-14T00:38:58.206Z,1.40
2022-09-14T00:41:29.035Z,1.38
2022-09-14T00:44:11.117Z,1.20
2022-09-14T00:46:40.812Z,1.40
2022-09-14T00:49:19.477Z,1.40
2022-09-14T00:51:53.229Z,1.45
2022-09-14T00:54:20.545Z,1.08
2022-09-14T00:56:49.129Z,1.30
2022-09-14T00:59:22.693Z,1.38
2022-09-14T01:01:50.614Z,1.75
2022-09-14T01:04:17.720Z,1.42
2022-09-14T01:07:29.007Z,1.17
2022-09-14T01:10:32.927Z,1.40
2022-09-14T01:13:12.124Z,1.30
2022-09-14T01:16:11.834Z,1.45
2022-09-14T01:18:55.703Z,1.13
2022-09-14T01:21:38.376Z,1.10
2022-09-14T01:24:08.531Z,1.13
2022-09-14T01:26:37.984Z,1.67
2022-09-14T01:29:12.163Z,1.40
2022-09-14T01:32:01.412Z,1.20
2022-09-14T01:34:33.129Z,1.20
2022-09-14T01:37:06.397Z,1.42
2022-09-14T01:39:35.953Z,1.38
2022-09-14T01:42:03.992Z,1.08
2022-09-14T01:44:36.115Z,1.13
2022-09-14T01:47:13.366Z,1.20
2022-09-14T01:49:55.902Z,1.50
2022-09-14T01:52:31.005Z,1.58
2022-09-14T01:55:04.502Z,1.20
2022-09-14T01:57:37.138Z,1.10
2022-09-14T02:00:11.234Z,1.60
2022-09-14T02:02:47.267Z,1.25
2022-09-14T02:05:28.879Z,1.70
2022-09-14T02:07:56.672Z,1.40
2022-09-14T02:10:24.609Z,1.38
2022-09-14T02:12:53.680Z,1.27
2022-09-14T02:15:21.672Z,1.27
2022-09-14T02:17:49.533Z,1.30
2022-09-14T02:20:25.791Z,1.38
2022-09-14T02:22:53.163Z,1.13
2022-09-14T02:25:21.007Z,1.10
2022-09-14T02:27:48.524Z,1.67
2022-09-14T02:30:17.327Z,1.20
2022-09-14T02:32:52.875Z,1.45
2022-09-14T02:35:41.755Z,1.33
2022-09-14T02:38:20.437Z,1.40
2022-09-14T02:41:13.022Z,1.50
2022-09-14T02:43:51.167Z,1.25
2022-09-14T02:46:45.210Z,1.30
2022-09-14T02:49:27.284Z,1.50
2022-09-14T02:52:06.220Z,1.42
2022-09-14T02:54:41.284Z,1.58
2022-09-14T02:57:08.263Z,1.33
2022-09-14T02:59:35.270Z,1.42
2022-09-14T03:02:02.215Z,2.00
2022-09-14T03:04:29.218Z,1.42
2022-09-14T03:06:56.973Z,1.77
2022-09-14T03:09:23.905Z,1.45
2022-09-14T03:11:50.903Z,2.00
2022-09-14T03:14:17.796Z,1.45
2022-09-14T03:16:44.806Z,1.30
2022-09-14T03:19:12.501Z,1.50
2022-09-14T03:21:40.019Z,1.30
2022-09-14T03:24:07.580Z,1.45
2022-09-14T03:26:37.085Z,1.50
2022-09-14T03:29:05.629Z,1.75
2022-09-14T03:31:33.645Z,1.13
2022-09-14T03:34:02.213Z,1.40
2022-09-14T03:36:31.919Z,1.95
2022-09-14T03:39:02.014Z,1.58
2022-09-14T03:41:29.216Z,1.38
2022-09-14T03:43:56.257Z,1.20
2022-09-14T03:46:25.565Z,1.33
2022-09-14T03:48:52.667Z,2.05
2022-09-14T03:51:19.734Z,1.70
2022-09-14T03:53:46.848Z,1.50
2022-09-14T03:56:19.491Z,1.60
2022-09-14T03:58:47.660Z,1.50
2022-09-14T04:01:18.187Z,1.42
2022-09-14T04:03:45.959Z,1.27
2022-09-14T04:06:13.340Z,1.60
2022-09-14T04:08:41.556Z,1.60
2022-09-14T04:11:20.993Z,1.40
2022-09-14T04:13:48.538Z,1.55
2022-09-14T04:16:16.760Z,1.98
2022-09-14T04:18:44.732Z,1.83
2022-09-14T04:21:15.080Z,1.80
2022-09-14T04:24:10.078Z,2.15
2022-09-14T04:26:30.516Z,1.67
2022-09-14T04:28:58.478Z,2.03
2022-09-14T04:31:25.761Z,1.70
2022-09-14T04:33:57.250Z,1.42
2022-09-14T04:36:31.380Z,1.67
2022-09-14T04:39:01.212Z,1.40
2022-09-14T04:41:29.613Z,1.17
2022-09-14T04:43:57.341Z,2.10
2022-09-14T04:46:31.201Z,1.55
2022-09-14T04:48:58.984Z,2.15
2022-09-14T04:51:28.531Z,1.58
2022-09-14T04:53:56.970Z,1.20
2022-09-14T04:56:25.031Z,1.40
2022-09-14T04:58:58.599Z,2.10
2022-09-14T05:01:29.190Z,1.50
2022-09-14T05:03:56.999Z,1.70
2022-09-14T05:06:28.272Z,1.65
2022-09-14T05:08:56.001Z,1.85
2022-09-14T05:11:25.407Z,1.35
2022-09-14T05:13:52.410Z,1.55
2022-09-14T05:16:26.599Z,1.95
2022-09-14T05:18:58.957Z,1.08
2022-09-14T05:21:25.919Z,1.13
2022-09-14T05:24:00.528Z,1.50
2022-09-14T05:26:29.548Z,1.27
2022-09-14T05:29:00.147Z,2.10
2022-09-14T05:31:29.002Z,1.90
2022-09-14T05:33:56.202Z,1.40
2022-09-14T05:36:23.693Z,1.05
2022-09-14T05:38:51.004Z,1.48
2022-09-14T05:41:18.418Z,1.20
2022-09-14T05:43:45.679Z,1.50
2022-09-14T05:46:15.163Z,1.55
2022-09-14T05:48:42.696Z,0.93
2022-09-14T05:51:17.509Z,1.00
2022-09-14T05:53:51.675Z,1.27
2022-09-14T05:56:20.137Z,1.45
2022-09-14T05:58:47.646Z,2.60
2022-09-14T06:01:23.309Z,1.02
2022-09-14T06:04:36.592Z,1.13
2022-09-14T06:07:17.886Z,0.98
2022-09-14T06:09:45.597Z,1.00
2022-09-14T06:12:14.698Z,1.25
2022-09-14T06:14:41.691Z,1.08
2022-09-14T06:17:08.625Z,1.17
2022-09-14T06:19:35.544Z,1.40
2022-09-14T06:22:02.480Z,1.08
2022-09-14T06:24:29.626Z,1.42
2022-09-14T06:26:56.659Z,0.98
2022-09-14T06:29:23.623Z,0.90
2022-09-14T06:31:50.517Z,1.02
2022-09-14T06:34:18.063Z,1.05
2022-09-14T06:36:45.576Z,0.98
2022-09-14T06:39:12.629Z,0.88
2022-09-14T06:41:39.572Z,1.02
2022-09-14T06:44:16.595Z,1.20
2022-09-14T06:46:47.396Z,1.00
2022-09-14T06:49:20.923Z,0.98
2022-09-14T06:51:48.119Z,1.25
2022-09-14T06:54:16.489Z,0.93
2022-09-14T06:56:45.065Z,0.95
2022-09-14T06:59:13.962Z,1.02
2022-09-14T07:01:41.421Z,1.02
2022-09-14T07:04:08.749Z,0.90
2022-09-14T07:06:41.886Z,0.95
2022-09-14T07:09:08.898Z,1.10
2022-09-14T07:11:36.067Z,1.10
2022-09-14T07:14:03.046Z,1.10
2022-09-14T07:16:31.970Z,1.10
2022-09-14T07:19:04.636Z,0.70
2022-09-14T07:21:33.161Z,1.10
2022-09-14T07:24:00.898Z,1.35
2022-09-14T07:26:30.683Z,1.10
2022-09-14T07:29:03.723Z,1.08
2022-09-14T07:31:36.015Z,1.10
2022-09-14T07:34:04.669Z,0.98
2022-09-14T07:36:34.946Z,1.00
2022-09-14T07:39:05.122Z,1.00
2022-09-14T07:41:34.343Z,1.00
2022-09-14T07:44:03.065Z,2.03
2022-09-14T07:46:34.884Z,1.27
2022-09-14T07:49:02.674Z,1.00
2022-09-14T07:51:31.024Z,1.20
2022-09-14T07:54:00.126Z,1.02
2022-09-14T07:56:27.302Z,1.20
2022-09-14T07:59:11.391Z,1.20
2022-09-14T08:01:44.351Z,1.20
2022-09-14T08:04:11.197Z,1.00
2022-09-14T08:06:40.623Z,1.20
2022-09-14T08:09:11.173Z,1.10
2022-09-14T08:11:38.784Z,1.30
2022-09-14T08:14:11.949Z,1.20
2022-09-14T08:16:40.839Z,1.27
2022-09-14T08:19:19.837Z,1.13
2022-09-14T08:21:47.909Z,0.98
2022-09-14T08:24:17.985Z,1.05
2022-09-14T08:26:45.629Z,1.05
2022-09-14T08:29:14.101Z,0.88
2022-09-14T08:31:41.229Z,1.42
2022-09-14T08:34:08.795Z,1.10
2022-09-14T08:36:38.265Z,1.13
2022-09-14T08:39:09.184Z,1.05
2022-09-14T08:41:44.696Z,1.00
2022-09-14T08:44:17.438Z,1.10
2022-09-14T08:47:03.096Z,1.33
2022-09-14T08:49:36.241Z,1.08
2022-09-14T08:52:03.918Z,1.13
2022-09-14T08:54:37.331Z,1.30
2022-09-14T08:57:20.121Z,0.95
2022-09-14T09:00:00.422Z,1.20
2022-09-14T09:02:52.934Z,0.82
2022-09-14T09:06:07.450Z,1.00
2022-09-14T09:08:53.977Z,0.90
2022-09-14T09:11:24.421Z,0.95
2022-09-14T09:13:53.361Z,0.90
2022-09-14T09:16:24.950Z,1.00
2022-09-14T09:18:57.855Z,1.17
2022-09-14T09:21:31.833Z,0.93
2022-09-14T09:24:28.378Z,0.63
2022-09-14T09:26:55.226Z,1.02
2022-09-14T09:29:22.214Z,1.40
2022-09-14T09:32:26.020Z,1.00
2022-09-14T09:35:01.886Z,1.10
2022-09-14T09:37:52.338Z,0.90
2022-09-14T09:40:25.786Z,1.20
2022-09-14T09:43:04.298Z,1.20
2022-09-14T10:17:33.990Z,0.82
2022-09-14T10:20:01.122Z,1.20
2022-09-14T10:22:31.325Z,0.90
2022-09-14T10:25:00.121Z,0.90
2022-09-14T10:27:39.850Z,1.20
2022-09-14T10:30:14.087Z,1.08
2022-09-14T10:32:45.723Z,1.13
2022-09-14T10:35:15.215Z,1.00
2022-09-14T10:38:06.892Z,0.77
2022-09-14T10:40:38.472Z,0.90
2022-09-14T10:43:30.578Z,1.25
2022-09-14T10:46:03.536Z,0.80
2022-09-14T10:48:44.609Z,0.85
2022-09-14T10:51:30.384Z,0.90
2022-09-14T10:54:21.950Z,1.00
2022-09-14T10:57:04.302Z,1.33
2022-09-14T10:59:55.655Z,0.75
2022-09-14T11:02:49.395Z,1.00
2022-09-14T11:05:24.330Z,0.70
2022-09-14T11:07:54.221Z,0.90
2022-09-14T11:10:40.037Z,1.13
2022-09-14T11:13:24.366Z,1.00
2022-09-14T11:15:51.266Z,0.70
2022-09-14T11:18:53.366Z,0.80
2022-09-14T11:21:22.909Z,0.85
2022-09-14T11:24:06.623Z,1.00
2022-09-14T11:27:03.368Z,0.90
2022-09-14T11:29:36.226Z,0.82
2022-09-14T11:32:37.356Z,0.90
2022-09-14T11:35:13.347Z,0.90
2022-09-14T11:37:58.442Z,0.80
2022-09-14T11:40:29.425Z,0.55
2022-09-14T11:43:14.051Z,1.13
2022-09-14T11:46:06.560Z,0.80
2022-09-14T11:48:42.841Z,1.45
2022-09-14T11:51:24.276Z,0.90
2022-09-14T11:53:51.812Z,0.60
2022-09-14T11:56:26.494Z,0.60
2022-09-14T11:58:56.368Z,0.70
2022-09-14T12:01:31.714Z,0.60
2022-09-14T12:04:01.699Z,0.70
2022-09-14T12:06:31.594Z,0.95
2022-09-14T12:09:17.307Z,0.70
2022-09-14T12:11:45.752Z,1.00
2022-09-14T12:14:15.105Z,0.75
2022-09-14T12:17:22.768Z,0.73
2022-09-14T12:19:58.771Z,0.95
2022-09-14T12:22:38.119Z,0.80
2022-09-14T12:25:20.288Z,0.85
2022-09-14T12:27:49.125Z,0.80
2022-09-14T12:30:39.913Z,0.80
2022-09-14T12:33:33.555Z,0.85
2022-09-14T12:36:01.405Z,0.95
2022-09-14T12:38:31.235Z,0.70
2022-09-14T12:41:03.164Z,0.68
2022-09-14T12:43:33.247Z,0.60
2022-09-14T12:46:20.449Z,0.90
2022-09-14T12:48:47.447Z,0.80
2022-09-14T12:51:32.810Z,0.77
2022-09-14T12:54:08.502Z,0.70
2022-09-14T12:56:43.871Z,0.80
2022-09-14T12:59:36.218Z,1.17
2022-09-14T13:02:17.974Z,0.90
2022-09-14T13:04:47.945Z,0.80
2022-09-14T13:07:17.868Z,1.15
2022-09-14T13:10:04.588Z,0.80
2022-09-14T13:15:06.339Z,0.77
2022-09-14T13:17:33.430Z,0.88
2022-09-14T13:20:05.855Z,0.70
2022-09-14T13:22:33.981Z,1.17
2022-09-14T13:25:04.180Z,0.80
2022-09-14T13:27:36.524Z,1.20
2022-09-14T13:30:18.318Z,0.70
2022-09-14T13:32:51.500Z,0.98
2022-09-14T13:35:18.344Z,0.75
2022-09-14T13:37:48.286Z,0.80
2022-09-14T13:40:15.582Z,0.73
2022-09-14T13:42:43.157Z,0.50
2022-09-14T13:45:13.161Z,0.77
2022-09-14T13:47:40.466Z,0.85
2022-09-14T13:50:08.163Z,0.63
2022-09-14T13:53:00.628Z,1.10
2022-09-14T13:55:43.985Z,1.55
2022-09-14T13:58:21.649Z,1.30
2022-09-14T14:01:06.446Z,1.17
2022-09-14T14:03:48.536Z,1.17
2022-09-14T14:06:32.785Z,0.90
2022-09-14T14:09:04.956Z,1.38
2022-09-14T14:11:53.012Z,1.63
2022-09-14T14:14:28.810Z,1.20
2022-09-14T14:17:20.404Z,0.80
2022-09-14T14:19:48.716Z,1.45
2022-09-14T14:22:15.668Z,1.33
2022-09-14T14:25:11.762Z,1.35
2022-09-14T14:27:41.639Z,1.10
2022-09-14T14:30:17.835Z,1.38
2022-09-14T14:35:20.087Z,1.65
2022-09-14T14:37:47.977Z,1.25
2022-09-14T14:40:16.616Z,1.13
2022-09-14T14:42:44.576Z,1.33
2022-09-14T14:45:19.015Z,1.13
2022-09-14T14:47:47.503Z,1.40
2022-09-14T14:50:22.699Z,1.85
2022-09-14T14:52:51.609Z,1.55
2022-09-14T14:55:21.198Z,1.25
2022-09-14T14:57:49.021Z,1.42
2022-09-14T15:00:24.319Z,1.50
2022-09-14T15:02:51.687Z,1.75
2022-09-14T15:05:19.782Z,1.88
2022-09-14T15:07:47.714Z,1.95
2022-09-14T15:10:16.445Z,1.50
2022-09-14T15:12:44.194Z,1.65
2022-09-14T15:15:24.080Z,1.30
2022-09-14T15:17:51.989Z,1.20
2022-09-14T15:20:19.951Z,1.35
2022-09-14T15:22:48.075Z,2.05
2022-09-14T15:25:16.731Z,1.70
2022-09-14T15:27:44.018Z,1.90
2022-09-14T15:30:12.153Z,2.67
2022-09-14T15:32:40.095Z,1.95
2022-09-14T15:35:10.314Z,2.10
2022-09-14T15:37:37.274Z,1.63
2022-09-14T15:40:05.555Z,1.38
2022-09-14T15:42:32.520Z,1.50
2022-09-14T15:44:59.594Z,2.05
2022-09-14T15:47:26.469Z,2.33
2022-09-14T15:49:53.539Z,1.98
2022-09-14T15:52:20.573Z,1.98
2022-09-14T15:54:48.545Z,1.98
2022-09-14T15:57:15.454Z,2.00
2022-09-14T15:59:42.469Z,2.13
2022-09-14T16:02:11.098Z,2.33
2022-09-14T16:04:39.293Z,2.13
2022-09-14T16:07:10.073Z,1.83
2022-09-14T16:09:39.643Z,1.65
2022-09-14T16:12:07.942Z,2.03
2022-09-14T16:14:34.987Z,2.05
2022-09-14T16:17:02.812Z,1.90
2022-09-14T16:19:30.060Z,2.50
2022-09-14T16:21:57.034Z,2.13
2022-09-14T16:24:25.386Z,1.90
2022-09-14T16:26:53.334Z,1.80
2022-09-14T16:29:21.738Z,2.05
2022-09-14T16:31:49.540Z,1.75
2022-09-14T16:34:26.008Z,1.73
2022-09-14T16:36:53.284Z,1.73
2022-09-14T16:39:23.121Z,1.77
2022-09-14T16:41:50.358Z,1.80
2022-09-14T16:44:25.718Z,1.65
2022-09-14T16:46:54.165Z,1.73
2022-09-14T16:49:24.967Z,1.65
2022-09-14T16:51:54.394Z,2.10
2022-09-14T16:54:23.171Z,1.83
2022-09-14T16:56:50.761Z,1.70
2022-09-14T16:59:19.475Z,1.67
2022-09-14T17:01:51.940Z,2.15
2022-09-14T17:04:22.185Z,1.58
2022-09-14T17:06:51.801Z,1.70
2022-09-14T17:09:25.420Z,2.38
2022-09-14T17:11:54.144Z,2.33
2022-09-14T17:14:24.849Z,1.83
2022-09-14T17:16:52.144Z,2.83
2022-09-14T17:19:19.165Z,2.03
2022-09-14T17:21:47.488Z,1.67
2022-09-14T17:24:15.980Z,2.20
2022-09-14T17:26:43.338Z,1.90
2022-09-14T17:29:10.979Z,2.58
2022-09-14T17:31:40.648Z,2.40
2022-09-14T17:34:09.737Z,2.00
2022-09-14T17:36:38.313Z,2.38
2022-09-14T17:39:11.353Z,2.20
2022-09-14T17:41:41.279Z,1.80
2022-09-14T17:44:11.309Z,1.90
2022-09-14T17:46:46.004Z,1.98
2022-09-14T17:49:16.374Z,1.70
2022-09-14T17:51:45.497Z,2.20
2022-09-14T17:54:12.941Z,1.80
2022-09-14T17:56:39.930Z,1.88
2022-09-14T17:59:10.993Z,2.20
2022-09-14T18:01:38.822Z,1.98
2022-09-14T18:04:09.972Z,2.13
2022-09-14T18:06:42.464Z,1.75
2022-09-14T18:09:17.069Z,1.85
2022-09-14T18:11:45.008Z,1.88
2022-09-14T18:14:13.838Z,2.00
2022-09-14T18:16:41.598Z,1.98
2022-09-14T18:19:08.945Z,1.58
2022-09-14T18:21:36.278Z,1.50
2022-09-14T18:24:03.937Z,1.95
2022-09-14T18:26:31.068Z,2.00
2022-09-14T18:28:58.836Z,2.13
2022-09-14T18:31:26.349Z,1.90
2022-09-14T18:33:59.219Z,1.65
2022-09-14T18:36:29.322Z,1.80
2022-09-14T18:38:58.244Z,2.00
2022-09-14T18:41:26.202Z,1.80
2022-09-14T18:43:53.732Z,1.88
2022-09-14T18:46:25.752Z,2.00
2022-09-14T18:48:56.897Z,2.03
2022-09-14T18:51:24.148Z,2.00
2022-09-14T18:54:00.122Z,1.98
2022-09-14T18:56:28.109Z,2.10
2022-09-14T18:58:55.554Z,1.95
2022-09-14T19:01:22.670Z,2.38
2022-09-14T19:03:50.095Z,1.70
2022-09-14T19:06:18.894Z,2.10
2022-09-14T19:08:46.797Z,1.67
2022-09-14T19:11:17.961Z,1.75
2022-09-14T19:13:46.525Z,2.25
2022-09-14T19:16:19.700Z,2.50
2022-09-14T19:18:48.408Z,2.25
2022-09-14T19:21:23.616Z,1.80
2022-09-14T19:24:00.478Z,1.87
2022-09-14T19:26:40.031Z,1.55
2022-09-14T19:29:11.783Z,1.67
2022-09-14T19:31:38.739Z,2.17
2022-09-14T19:34:06.038Z,1.90
2022-09-14T19:36:35.080Z,2.17
2022-09-14T19:39:04.237Z,2.20
2022-09-14T19:41:33.175Z,1.95
2022-09-14T19:44:01.013Z,1.60
2022-09-14T19:46:29.194Z,1.60
2022-09-14T19:48:56.349Z,1.65
2022-09-14T19:51:25.662Z,1.65
2022-09-14T19:53:54.481Z,1.80
2022-09-14T19:56:23.055Z,1.58
2022-09-14T19:58:51.557Z,1.70
2022-09-14T20:01:20.183Z,2.08
2022-09-14T20:03:48.711Z,2.10
2022-09-14T20:06:23.469Z,1.70
2022-09-14T20:08:53.019Z,2.00
2022-09-14T20:11:23.915Z,1.77
2022-09-14T20:13:53.458Z,1.73
2022-09-14T20:16:25.369Z,1.83
2022-09-14T20:18:52.886Z,1.90
2022-09-14T20:21:24.828Z,1.75
2022-09-14T20:24:16.217Z,1.38
2022-09-14T20:26:47.943Z,1.27
2022-09-14T20:29:16.141Z,1.52
2022-09-14T20:31:43.915Z,1.58
2022-09-14T20:34:11.342Z,1.40
2022-09-14T20:36:38.867Z,1.30
2022-09-14T20:39:06.047Z,1.27
2022-09-14T20:41:35.116Z,1.23
2022-09-14T20:44:03.141Z,1.52
2022-09-14T20:49:23.943Z,1.20
2022-09-14T20:51:45.920Z,1.20
2022-09-14T20:51:52.829Z,1.10
2022-09-14T20:54:20.203Z,1.45
2022-09-14T20:56:47.416Z,1.20
2022-09-14T20:59:22.931Z,1.13
2022-09-14T21:01:51.591Z,1.10
2022-09-14T21:04:21.776Z,1.65
2022-09-14T21:06:52.698Z,1.65
2022-09-14T21:09:22.793Z,1.88
2022-09-14T21:11:49.881Z,1.88
2022-09-14T21:14:18.877Z,2.25
2022-09-14T21:16:47.627Z,1.92
2022-09-14T21:19:20.748Z,2.03
2022-09-14T21:21:49.101Z,1.52
2022-09-14T21:24:17.796Z,1.40
2022-09-14T21:26:45.974Z,1.40
2022-09-14T21:29:20.344Z,1.60
2022-09-14T21:31:48.874Z,1.90
2022-09-14T21:34:16.614Z,1.77
2022-09-14T21:36:46.089Z,1.75
2022-09-14T21:39:21.562Z,1.77
2022-09-14T21:41:54.483Z,1.65
2022-09-14T21:44:31.785Z,1.42
2022-09-14T21:46:59.343Z,1.33
2022-09-14T21:49:26.301Z,1.35
2022-09-14T21:51:53.359Z,1.80
2022-09-14T21:54:22.354Z,1.50
2022-09-14T21:56:49.549Z,1.13
2022-09-14T21:59:19.321Z,0.95
2022-09-14T22:01:47.696Z,1.00
2022-09-14T22:04:21.290Z,1.48
2022-09-14T22:06:48.940Z,1.00
2022-09-14T22:09:18.662Z,1.40
2022-09-14T22:11:46.162Z,1.30
2022-09-14T22:14:18.216Z,1.30
2022-09-14T22:16:45.762Z,1.15
2022-09-14T22:19:35.297Z,1.10
2022-09-14T22:22:03.840Z,0.98
2022-09-14T22:24:37.963Z,1.05
2022-09-14T22:27:08.107Z,1.35
2022-09-14T22:29:35.180Z,0.98
2022-09-14T22:32:02.272Z,1.00
2022-09-14T22:34:29.347Z,1.08
2022-09-14T22:36:56.259Z,1.40
2022-09-14T22:39:23.981Z,1.25
2022-09-14T22:41:50.884Z,1.33
2022-09-14T22:44:17.735Z,1.50
2022-09-14T22:46:44.909Z,1.20
2022-09-14T22:49:12.317Z,1.40
2022-09-14T22:51:39.340Z,1.13
2022-09-14T22:54:07.015Z,1.55
2022-09-14T22:56:37.472Z,1.75
2022-09-14T22:59:09.749Z,1.48
2022-09-14T23:01:39.250Z,2.00
2022-09-14T23:04:09.175Z,1.80
2022-09-14T23:06:42.908Z,1.63
2022-09-14T23:09:12.743Z,2.40
2022-09-14T23:11:39.915Z,1.98
2022-09-14T23:14:06.779Z,1.80
2022-09-14T23:16:33.778Z,1.80
2022-09-14T23:19:02.904Z,2.17
2022-09-14T23:21:31.309Z,1.70
2022-09-14T23:24:03.950Z,2.30
2022-09-14T23:26:31.638Z,1.52
2022-09-14T23:29:01.760Z,2.28
2022-09-14T23:31:30.031Z,1.83
2022-09-14T23:33:59.058Z,1.95
2022-09-14T23:36:26.491Z,2.35
2022-09-14T23:38:53.901Z,2.53
2022-09-14T23:41:22.917Z,2.25
2022-09-14T23:43:50.414Z,2.20
2022-09-14T23:46:18.310Z,2.17
2022-09-14T23:48:45.744Z,2.05
2022-09-14T23:51:13.389Z,2.00
2022-09-14T23:53:40.662Z,2.15
2022-09-14T23:56:08.455Z,2.38
2022-09-14T23:58:35.667Z,2.10
